sensor_id;sensor_type;location;lat;lon;timestamp;P1;durP1;ratioP1;P2;durP2;ratioP2
8319;SDS011;4197;42.130;24.746;2024-02-21T00:01:50;54.07;;;31.47;;
8319;SDS011;4197;42.130;24.746;2024-02-21T00:04:18;49.80;;;30.87;;
8319;SDS011;4197;42.130;24.746;2024-02-21T00:06:46;52.77;;;32.70;;
8319;SDS011;4197;42.130;24.746;2024-02-21T00:09:15;52.07;;;31.83;;
8319;SDS011;4197;42.130;24.746;2024-02-21T00:11:45;50.23;;;31.03;;
8319;SDS011;4197;42.130;24.746;2024-02-21T00:14:14;50.90;;;30.83;;
8319;SDS011;4197;42.130;24.746;2024-02-21T00:16:44;55.53;;;32.30;;
8319;SDS011;4197;42.130;24.746;2024-02-21T00:19:12;57.60;;;32.73;;
8319;SDS011;4197;42.130;24.746;2024-02-21T00:21:41;54.10;;;31.87;;
8319;SDS011;4197;42.130;24.746;2024-02-21T00:24:10;54.20;;;33.30;;
8319;SDS011;4197;42.130;24.746;2024-02-21T00:26:38;52.00;;;33.50;;
8319;SDS011;4197;42.130;24.746;2024-02-21T00:29:07;55.23;;;33.10;;
8319;SDS011;4197;42.130;24.746;2024-02-21T00:31:35;57.93;;;34.20;;
8319;SDS011;4197;42.130;24.746;2024-02-21T00:34:05;52.67;;;32.50;;
8319;SDS011;4197;42.130;24.746;2024-02-21T00:36:33;55.27;;;32.70;;
8319;SDS011;4197;42.130;24.746;2024-02-21T00:39:02;54.77;;;33.00;;
8319;SDS011;4197;42.130;24.746;2024-02-21T00:41:30;53.90;;;34.73;;
8319;SDS011;4197;42.130;24.746;2024-02-21T00:43:59;56.83;;;33.87;;
8319;SDS011;4197;42.130;24.746;2024-02-21T00:46:28;57.37;;;33.80;;
8319;SDS011;4197;42.130;24.746;2024-02-21T00:48:56;55.20;;;34.30;;
8319;SDS011;4197;42.130;24.746;2024-02-21T00:51:27;58.43;;;36.30;;
8319;SDS011;4197;42.130;24.746;2024-02-21T00:53:56;55.87;;;34.20;;
8319;SDS011;4197;42.130;24.746;2024-02-21T00:56:24;60.40;;;35.57;;
8319;SDS011;4197;42.130;24.746;2024-02-21T00:58:53;54.50;;;35.20;;
8319;SDS011;4197;42.130;24.746;2024-02-21T01:01:21;59.80;;;34.80;;
8319;SDS011;4197;42.130;24.746;2024-02-21T01:03:50;56.77;;;35.60;;
8319;SDS011;4197;42.130;24.746;2024-02-21T01:06:20;59.57;;;34.80;;
8319;SDS011;4197;42.130;24.746;2024-02-21T01:08:51;54.17;;;34.17;;
8319;SDS011;4197;42.130;24.746;2024-02-21T01:11:20;57.13;;;36.37;;
8319;SDS011;4197;42.130;24.746;2024-02-21T01:13:48;55.97;;;33.40;;
8319;SDS011;4197;42.130;24.746;2024-02-21T01:16:17;55.67;;;34.30;;
8319;SDS011;4197;42.130;24.746;2024-02-21T01:18:45;55.30;;;34.50;;
8319;SDS011;4197;42.130;24.746;2024-02-21T01:21:14;51.90;;;31.67;;
8319;SDS011;4197;42.130;24.746;2024-02-21T01:23:42;54.10;;;33.03;;
8319;SDS011;4197;42.130;24.746;2024-02-21T01:26:11;52.97;;;33.27;;
8319;SDS011;4197;42.130;24.746;2024-02-21T01:28:41;56.50;;;33.23;;
8319;SDS011;4197;42.130;24.746;2024-02-21T01:31:10;50.77;;;32.87;;
8319;SDS011;4197;42.130;24.746;2024-02-21T01:33:39;56.27;;;34.53;;
8319;SDS011;4197;42.130;24.746;2024-02-21T01:36:09;52.93;;;34.07;;
8319;SDS011;4197;42.130;24.746;2024-02-21T01:38:37;48.47;;;30.97;;
8319;SDS011;4197;42.130;24.746;2024-02-21T01:41:05;51.20;;;32.43;;
8319;SDS011;4197;42.130;24.746;2024-02-21T01:43:37;56.30;;;32.70;;
8319;SDS011;4197;42.130;24.746;2024-02-21T01:46:05;51.43;;;32.47;;
8319;SDS011;4197;42.130;24.746;2024-02-21T01:48:34;54.17;;;31.63;;
8319;SDS011;4197;42.130;24.746;2024-02-21T01:51:04;51.67;;;31.67;;
8319;SDS011;4197;42.130;24.746;2024-02-21T01:53:34;55.10;;;31.87;;
8319;SDS011;4197;42.130;24.746;2024-02-21T01:56:05;51.50;;;32.83;;
8319;SDS011;4197;42.130;24.746;2024-02-21T01:58:37;49.47;;;31.53;;
8319;SDS011;4197;42.130;24.746;2024-02-21T02:01:08;51.47;;;32.37;;
8319;SDS011;4197;42.130;24.746;2024-02-21T02:03:37;47.80;;;31.17;;
8319;SDS011;4197;42.130;24.746;2024-02-21T02:06:07;51.00;;;31.87;;
8319;SDS011;4197;42.130;24.746;2024-02-21T02:08:35;52.53;;;32.13;;
8319;SDS011;4197;42.130;24.746;2024-02-21T02:11:04;50.87;;;31.80;;
8319;SDS011;4197;42.130;24.746;2024-02-21T02:13:33;55.50;;;33.37;;
8319;SDS011;4197;42.130;24.746;2024-02-21T02:16:04;57.63;;;33.20;;
8319;SDS011;4197;42.130;24.746;2024-02-21T02:18:33;48.23;;;32.03;;
8319;SDS011;4197;42.130;24.746;2024-02-21T02:21:01;52.60;;;33.00;;
8319;SDS011;4197;42.130;24.746;2024-02-21T02:23:34;51.67;;;32.87;;
8319;SDS011;4197;42.130;24.746;2024-02-21T02:26:03;56.87;;;33.33;;
8319;SDS011;4197;42.130;24.746;2024-02-21T02:28:34;51.47;;;33.17;;
8319;SDS011;4197;42.130;24.746;2024-02-21T02:31:03;54.27;;;33.30;;
8319;SDS011;4197;42.130;24.746;2024-02-21T02:33:31;49.53;;;32.53;;
8319;SDS011;4197;42.130;24.746;2024-02-21T02:36:00;54.13;;;33.63;;
8319;SDS011;4197;42.130;24.746;2024-02-21T02:38:28;55.60;;;34.37;;
8319;SDS011;4197;42.130;24.746;2024-02-21T02:40:58;54.53;;;34.53;;
8319;SDS011;4197;42.130;24.746;2024-02-21T02:43:26;57.73;;;35.57;;
8319;SDS011;4197;42.130;24.746;2024-02-21T02:45:55;62.20;;;38.20;;
8319;SDS011;4197;42.130;24.746;2024-02-21T02:48:24;61.83;;;37.47;;
8319;SDS011;4197;42.130;24.746;2024-02-21T02:50:52;62.30;;;37.67;;
8319;SDS011;4197;42.130;24.746;2024-02-21T02:53:22;63.80;;;37.80;;
8319;SDS011;4197;42.130;24.746;2024-02-21T02:55:50;67.23;;;39.17;;
8319;SDS011;4197;42.130;24.746;2024-02-21T02:58:20;64.43;;;38.70;;
8319;SDS011;4197;42.130;24.746;2024-02-21T03:00:49;61.33;;;38.93;;
8319;SDS011;4197;42.130;24.746;2024-02-21T03:03:17;64.83;;;39.27;;
8319;SDS011;4197;42.130;24.746;2024-02-21T03:05:46;60.80;;;38.27;;
8319;SDS011;4197;42.130;24.746;2024-02-21T03:08:14;64.77;;;38.40;;
8319;SDS011;4197;42.130;24.746;2024-02-21T03:10:43;61.47;;;37.43;;
8319;SDS011;4197;42.130;24.746;2024-02-21T03:13:11;62.60;;;39.37;;
8319;SDS011;4197;42.130;24.746;2024-02-21T03:15:41;68.53;;;38.17;;
8319;SDS011;4197;42.130;24.746;2024-02-21T03:18:09;55.13;;;35.73;;
8319;SDS011;4197;42.130;24.746;2024-02-21T03:20:38;55.00;;;36.87;;
8319;SDS011;4197;42.130;24.746;2024-02-21T03:23:06;56.47;;;34.10;;
8319;SDS011;4197;42.130;24.746;2024-02-21T03:25:34;56.03;;;34.03;;
8319;SDS011;4197;42.130;24.746;2024-02-21T03:28:03;58.90;;;38.00;;
8319;SDS011;4197;42.130;24.746;2024-02-21T03:30:31;58.97;;;38.43;;
8319;SDS011;4197;42.130;24.746;2024-02-21T03:33:02;67.03;;;40.23;;
8319;SDS011;4197;42.130;24.746;2024-02-21T03:35:31;65.87;;;42.33;;
8319;SDS011;4197;42.130;24.746;2024-02-21T03:37:59;65.13;;;39.83;;
8319;SDS011;4197;42.130;24.746;2024-02-21T03:40:28;66.73;;;40.60;;
8319;SDS011;4197;42.130;24.746;2024-02-21T03:42:56;64.30;;;41.40;;
8319;SDS011;4197;42.130;24.746;2024-02-21T03:45:24;56.10;;;35.10;;
8319;SDS011;4197;42.130;24.746;2024-02-21T03:47:53;58.03;;;35.57;;
8319;SDS011;4197;42.130;24.746;2024-02-21T03:50:23;60.47;;;37.80;;
8319;SDS011;4197;42.130;24.746;2024-02-21T03:52:54;50.93;;;34.37;;
8319;SDS011;4197;42.130;24.746;2024-02-21T03:55:23;56.30;;;34.87;;
8319;SDS011;4197;42.130;24.746;2024-02-21T03:57:51;56.17;;;35.03;;
8319;SDS011;4197;42.130;24.746;2024-02-21T04:00:19;51.10;;;32.13;;
8319;SDS011;4197;42.130;24.746;2024-02-21T04:02:48;60.77;;;37.97;;
8319;SDS011;4197;42.130;24.746;2024-02-21T04:05:16;53.77;;;35.37;;
8319;SDS011;4197;42.130;24.746;2024-02-21T04:07:46;45.03;;;30.33;;
8319;SDS011;4197;42.130;24.746;2024-02-21T04:10:14;42.33;;;28.33;;
8319;SDS011;4197;42.130;24.746;2024-02-21T04:12:42;56.47;;;38.40;;
8319;SDS011;4197;42.130;24.746;2024-02-21T04:15:11;43.37;;;28.73;;
8319;SDS011;4197;42.130;24.746;2024-02-21T04:17:39;44.17;;;28.50;;
8319;SDS011;4197;42.130;24.746;2024-02-21T04:20:13;39.63;;;27.57;;
8319;SDS011;4197;42.130;24.746;2024-02-21T04:22:42;44.40;;;30.80;;
8319;SDS011;4197;42.130;24.746;2024-02-21T04:25:13;41.73;;;29.37;;
8319;SDS011;4197;42.130;24.746;2024-02-21T04:27:42;41.93;;;27.23;;
8319;SDS011;4197;42.130;24.746;2024-02-21T04:30:10;41.43;;;28.13;;
8319;SDS011;4197;42.130;24.746;2024-02-21T04:32:39;41.97;;;26.80;;
8319;SDS011;4197;42.130;24.746;2024-02-21T04:35:08;56.77;;;37.50;;
8319;SDS011;4197;42.130;24.746;2024-02-21T04:37:36;56.43;;;35.13;;
8319;SDS011;4197;42.130;24.746;2024-02-21T04:40:05;54.23;;;34.17;;
8319;SDS011;4197;42.130;24.746;2024-02-21T04:42:37;62.10;;;37.10;;
8319;SDS011;4197;42.130;24.746;2024-02-21T04:45:06;57.63;;;36.63;;
8319;SDS011;4197;42.130;24.746;2024-02-21T04:47:35;60.37;;;38.87;;
8319;SDS011;4197;42.130;24.746;2024-02-21T04:50:03;70.20;;;41.93;;
8319;SDS011;4197;42.130;24.746;2024-02-21T04:52:33;60.80;;;37.33;;
8319;SDS011;4197;42.130;24.746;2024-02-21T04:55:01;85.17;;;49.10;;
8319;SDS011;4197;42.130;24.746;2024-02-21T04:57:30;65.93;;;37.80;;
8319;SDS011;4197;42.130;24.746;2024-02-21T04:59:59;61.10;;;37.23;;
8319;SDS011;4197;42.130;24.746;2024-02-21T05:02:27;66.00;;;38.10;;
8319;SDS011;4197;42.130;24.746;2024-02-21T05:04:57;63.63;;;36.50;;
8319;SDS011;4197;42.130;24.746;2024-02-21T05:07:25;61.17;;;38.47;;
8319;SDS011;4197;42.130;24.746;2024-02-21T05:09:54;65.57;;;37.80;;
8319;SDS011;4197;42.130;24.746;2024-02-21T05:12:22;72.10;;;40.23;;
8319;SDS011;4197;42.130;24.746;2024-02-21T05:14:52;65.00;;;38.47;;
8319;SDS011;4197;42.130;24.746;2024-02-21T05:17:22;68.63;;;39.90;;
8319;SDS011;4197;42.130;24.746;2024-02-21T05:19:50;81.13;;;48.87;;
8319;SDS011;4197;42.130;24.746;2024-02-21T05:22:19;72.33;;;42.60;;
8319;SDS011;4197;42.130;24.746;2024-02-21T05:24:47;65.20;;;40.37;;
8319;SDS011;4197;42.130;24.746;2024-02-21T05:27:15;70.43;;;38.47;;
8319;SDS011;4197;42.130;24.746;2024-02-21T05:29:44;62.43;;;38.23;;
8319;SDS011;4197;42.130;24.746;2024-02-21T05:32:12;67.77;;;39.23;;
8319;SDS011;4197;42.130;24.746;2024-02-21T05:34:42;60.97;;;38.13;;
8319;SDS011;4197;42.130;24.746;2024-02-21T05:37:10;61.97;;;37.73;;
8319;SDS011;4197;42.130;24.746;2024-02-21T05:39:39;59.27;;;36.93;;
8319;SDS011;4197;42.130;24.746;2024-02-21T05:42:08;59.73;;;35.60;;
8319;SDS011;4197;42.130;24.746;2024-02-21T05:44:36;57.43;;;36.50;;
8319;SDS011;4197;42.130;24.746;2024-02-21T05:47:05;60.27;;;36.27;;
8319;SDS011;4197;42.130;24.746;2024-02-21T05:49:36;57.83;;;35.00;;
8319;SDS011;4197;42.130;24.746;2024-02-21T05:52:06;59.23;;;33.93;;
8319;SDS011;4197;42.130;24.746;2024-02-21T05:54:37;55.57;;;35.17;;
8319;SDS011;4197;42.130;24.746;2024-02-21T05:57:07;61.57;;;35.43;;
8319;SDS011;4197;42.130;24.746;2024-02-21T05:59:37;56.10;;;36.33;;
8319;SDS011;4197;42.130;24.746;2024-02-21T06:02:06;55.90;;;38.33;;
8319;SDS011;4197;42.130;24.746;2024-02-21T06:04:35;53.47;;;35.77;;
8319;SDS011;4197;42.130;24.746;2024-02-21T06:07:04;57.23;;;36.63;;
8319;SDS011;4197;42.130;24.746;2024-02-21T06:09:33;57.40;;;35.90;;
8319;SDS011;4197;42.130;24.746;2024-02-21T06:12:03;60.73;;;36.17;;
8319;SDS011;4197;42.130;24.746;2024-02-21T06:14:32;59.73;;;35.63;;
8319;SDS011;4197;42.130;24.746;2024-02-21T06:17:00;50.73;;;34.23;;
8319;SDS011;4197;42.130;24.746;2024-02-21T06:19:29;58.03;;;35.83;;
8319;SDS011;4197;42.130;24.746;2024-02-21T06:21:58;55.27;;;35.07;;
8319;SDS011;4197;42.130;24.746;2024-02-21T06:24:27;57.63;;;36.43;;
8319;SDS011;4197;42.130;24.746;2024-02-21T06:26:56;59.87;;;36.43;;
8319;SDS011;4197;42.130;24.746;2024-02-21T06:29:24;52.50;;;34.67;;
8319;SDS011;4197;42.130;24.746;2024-02-21T06:31:54;58.63;;;37.60;;
8319;SDS011;4197;42.130;24.746;2024-02-21T06:34:22;62.17;;;40.23;;
8319;SDS011;4197;42.130;24.746;2024-02-21T06:36:51;61.10;;;38.40;;
8319;SDS011;4197;42.130;24.746;2024-02-21T06:39:19;65.13;;;39.00;;
8319;SDS011;4197;42.130;24.746;2024-02-21T06:41:49;66.53;;;39.80;;
8319;SDS011;4197;42.130;24.746;2024-02-21T06:44:20;54.50;;;36.30;;
8319;SDS011;4197;42.130;24.746;2024-02-21T06:46:49;57.83;;;35.90;;
8319;SDS011;4197;42.130;24.746;2024-02-21T06:49:18;57.20;;;36.10;;
8319;SDS011;4197;42.130;24.746;2024-02-21T06:51:47;54.83;;;32.53;;
8319;SDS011;4197;42.130;24.746;2024-02-21T06:54:16;47.03;;;32.33;;
8319;SDS011;4197;42.130;24.746;2024-02-21T06:56:44;51.33;;;33.47;;
8319;SDS011;4197;42.130;24.746;2024-02-21T06:59:13;49.57;;;34.07;;
8319;SDS011;4197;42.130;24.746;2024-02-21T07:01:46;52.03;;;33.63;;
8319;SDS011;4197;42.130;24.746;2024-02-21T07:04:16;46.67;;;31.77;;
8319;SDS011;4197;42.130;24.746;2024-02-21T07:06:45;47.43;;;31.53;;
8319;SDS011;4197;42.130;24.746;2024-02-21T07:09:13;48.67;;;30.50;;
8319;SDS011;4197;42.130;24.746;2024-02-21T07:11:42;45.20;;;30.90;;
8319;SDS011;4197;42.130;24.746;2024-02-21T07:14:10;43.07;;;27.87;;
8319;SDS011;4197;42.130;24.746;2024-02-21T07:16:39;43.87;;;28.93;;
8319;SDS011;4197;42.130;24.746;2024-02-21T07:19:09;43.63;;;26.40;;
8319;SDS011;4197;42.130;24.746;2024-02-21T07:21:38;52.50;;;34.17;;
8319;SDS011;4197;42.130;24.746;2024-02-21T07:24:08;43.47;;;27.27;;
8319;SDS011;4197;42.130;24.746;2024-02-21T07:26:40;42.50;;;27.57;;
8319;SDS011;4197;42.130;24.746;2024-02-21T07:29:11;39.20;;;24.73;;
8319;SDS011;4197;42.130;24.746;2024-02-21T07:31:40;43.63;;;25.70;;
8319;SDS011;4197;42.130;24.746;2024-02-21T07:34:11;40.43;;;25.83;;
8319;SDS011;4197;42.130;24.746;2024-02-21T07:36:41;32.77;;;19.97;;
8319;SDS011;4197;42.130;24.746;2024-02-21T07:39:11;35.40;;;20.27;;
8319;SDS011;4197;42.130;24.746;2024-02-21T07:41:39;49.73;;;30.13;;
8319;SDS011;4197;42.130;24.746;2024-02-21T07:44:10;27.47;;;19.43;;
8319;SDS011;4197;42.130;24.746;2024-02-21T07:46:38;36.83;;;21.00;;
8319;SDS011;4197;42.130;24.746;2024-02-21T07:49:07;28.50;;;18.73;;
8319;SDS011;4197;42.130;24.746;2024-02-21T07:51:38;28.77;;;18.10;;
8319;SDS011;4197;42.130;24.746;2024-02-21T07:54:06;20.60;;;14.13;;
8319;SDS011;4197;42.130;24.746;2024-02-21T07:56:40;19.27;;;14.83;;
8319;SDS011;4197;42.130;24.746;2024-02-21T07:59:08;21.80;;;15.53;;
8319;SDS011;4197;42.130;24.746;2024-02-21T08:01:36;22.97;;;14.90;;
8319;SDS011;4197;42.130;24.746;2024-02-21T08:04:05;27.50;;;16.93;;
8319;SDS011;4197;42.130;24.746;2024-02-21T08:06:33;28.77;;;17.17;;
8319;SDS011;4197;42.130;24.746;2024-02-21T08:09:04;27.43;;;16.97;;
8319;SDS011;4197;42.130;24.746;2024-02-21T08:11:32;27.70;;;17.87;;
8319;SDS011;4197;42.130;24.746;2024-02-21T08:14:01;24.17;;;17.37;;
8319;SDS011;4197;42.130;24.746;2024-02-21T08:16:30;26.27;;;16.90;;
8319;SDS011;4197;42.130;24.746;2024-02-21T08:18:59;25.33;;;16.40;;
8319;SDS011;4197;42.130;24.746;2024-02-21T08:21:29;23.03;;;15.63;;
8319;SDS011;4197;42.130;24.746;2024-02-21T08:23:58;16.67;;;12.03;;
8319;SDS011;4197;42.130;24.746;2024-02-21T08:26:29;15.10;;;10.73;;
8319;SDS011;4197;42.130;24.746;2024-02-21T08:28:58;12.97;;;10.30;;
8319;SDS011;4197;42.130;24.746;2024-02-21T08:31:27;14.07;;;10.30;;
8319;SDS011;4197;42.130;24.746;2024-02-21T08:33:58;15.43;;;11.30;;
8319;SDS011;4197;42.130;24.746;2024-02-21T08:36:29;15.63;;;11.70;;
8319;SDS011;4197;42.130;24.746;2024-02-21T08:38:59;19.63;;;10.77;;
8319;SDS011;4197;42.130;24.746;2024-02-21T08:41:31;14.80;;;10.27;;
8319;SDS011;4197;42.130;24.746;2024-02-21T08:44:21;16.53;;;9.23;;
8319;SDS011;4197;42.130;24.746;2024-02-21T08:46:50;23.20;;;12.83;;
8319;SDS011;4197;42.130;24.746;2024-02-21T08:49:19;20.10;;;11.33;;
8319;SDS011;4197;42.130;24.746;2024-02-21T08:51:48;15.13;;;10.20;;
8319;SDS011;4197;42.130;24.746;2024-02-21T08:54:17;11.73;;;9.30;;
8319;SDS011;4197;42.130;24.746;2024-02-21T08:56:47;16.20;;;10.13;;
8319;SDS011;4197;42.130;24.746;2024-02-21T08:59:15;14.13;;;8.97;;
8319;SDS011;4197;42.130;24.746;2024-02-21T09:01:44;27.00;;;16.33;;
8319;SDS011;4197;42.130;24.746;2024-02-21T09:04:12;17.63;;;11.17;;
8319;SDS011;4197;42.130;24.746;2024-02-21T09:06:42;20.17;;;11.53;;
8319;SDS011;4197;42.130;24.746;2024-02-21T09:09:12;13.60;;;10.60;;
8319;SDS011;4197;42.130;24.746;2024-02-21T09:11:40;16.87;;;10.63;;
8319;SDS011;4197;42.130;24.746;2024-02-21T09:14:11;14.17;;;10.87;;
8319;SDS011;4197;42.130;24.746;2024-02-21T09:16:42;17.60;;;11.90;;
8319;SDS011;4197;42.130;24.746;2024-02-21T09:19:10;21.87;;;14.90;;
8319;SDS011;4197;42.130;24.746;2024-02-21T09:21:40;17.63;;;12.93;;
8319;SDS011;4197;42.130;24.746;2024-02-21T09:24:09;18.00;;;12.20;;
8319;SDS011;4197;42.130;24.746;2024-02-21T09:26:37;15.47;;;12.77;;
8319;SDS011;4197;42.130;24.746;2024-02-21T09:29:06;16.90;;;11.30;;
8319;SDS011;4197;42.130;24.746;2024-02-21T09:31:36;17.90;;;11.53;;
8319;SDS011;4197;42.130;24.746;2024-02-21T09:34:06;18.47;;;13.40;;
8319;SDS011;4197;42.130;24.746;2024-02-21T09:36:35;15.77;;;12.40;;
8319;SDS011;4197;42.130;24.746;2024-02-21T09:39:03;19.60;;;12.53;;
8319;SDS011;4197;42.130;24.746;2024-02-21T09:41:32;12.97;;;10.03;;
8319;SDS011;4197;42.130;24.746;2024-02-21T09:44:06;13.90;;;10.33;;
8319;SDS011;4197;42.130;24.746;2024-02-21T09:46:40;14.27;;;9.63;;
8319;SDS011;4197;42.130;24.746;2024-02-21T09:49:21;13.97;;;9.40;;
8319;SDS011;4197;42.130;24.746;2024-02-21T09:51:59;11.23;;;9.40;;
8319;SDS011;4197;42.130;24.746;2024-02-21T09:54:30;11.17;;;9.03;;
8319;SDS011;4197;42.130;24.746;2024-02-21T09:57:01;11.93;;;9.17;;
8319;SDS011;4197;42.130;24.746;2024-02-21T09:59:32;11.43;;;7.97;;
8319;SDS011;4197;42.130;24.746;2024-02-21T10:02:03;11.47;;;8.20;;
8319;SDS011;4197;42.130;24.746;2024-02-21T10:04:33;9.67;;;7.57;;
8319;SDS011;4197;42.130;24.746;2024-02-21T10:07:03;13.03;;;8.53;;
8319;SDS011;4197;42.130;24.746;2024-02-21T10:09:32;11.77;;;8.73;;
8319;SDS011;4197;42.130;24.746;2024-02-21T10:12:09;12.40;;;8.73;;
8319;SDS011;4197;42.130;24.746;2024-02-21T10:14:40;10.40;;;8.03;;
8319;SDS011;4197;42.130;24.746;2024-02-21T10:17:14;11.20;;;7.93;;
8319;SDS011;4197;42.130;24.746;2024-02-21T10:19:46;11.03;;;8.40;;
8319;SDS011;4197;42.130;24.746;2024-02-21T10:22:17;9.60;;;8.23;;
8319;SDS011;4197;42.130;24.746;2024-02-21T10:24:48;11.63;;;8.33;;
8319;SDS011;4197;42.130;24.746;2024-02-21T10:27:16;10.70;;;8.47;;
8319;SDS011;4197;42.130;24.746;2024-02-21T10:29:48;9.57;;;7.50;;
8319;SDS011;4197;42.130;24.746;2024-02-21T10:32:19;10.77;;;7.40;;
8319;SDS011;4197;42.130;24.746;2024-02-21T10:34:47;8.57;;;6.90;;
8319;SDS011;4197;42.130;24.746;2024-02-21T10:37:18;8.23;;;6.73;;
8319;SDS011;4197;42.130;24.746;2024-02-21T10:39:49;8.60;;;7.03;;
8319;SDS011;4197;42.130;24.746;2024-02-21T10:42:18;7.97;;;7.17;;
8319;SDS011;4197;42.130;24.746;2024-02-21T10:44:50;8.37;;;7.17;;
8319;SDS011;4197;42.130;24.746;2024-02-21T10:47:20;10.40;;;7.20;;
8319;SDS011;4197;42.130;24.746;2024-02-21T10:49:56;9.03;;;6.93;;
8319;SDS011;4197;42.130;24.746;2024-02-21T10:52:32;10.27;;;6.27;;
8319;SDS011;4197;42.130;24.746;2024-02-21T10:55:14;7.23;;;6.47;;
8319;SDS011;4197;42.130;24.746;2024-02-21T10:57:50;11.33;;;8.00;;
8319;SDS011;4197;42.130;24.746;2024-02-21T11:00:19;8.47;;;6.80;;
8319;SDS011;4197;42.130;24.746;2024-02-21T11:02:53;15.27;;;8.67;;
8319;SDS011;4197;42.130;24.746;2024-02-21T11:05:21;9.47;;;7.50;;
8319;SDS011;4197;42.130;24.746;2024-02-21T11:07:51;8.33;;;7.03;;
8319;SDS011;4197;42.130;24.746;2024-02-21T11:10:20;9.43;;;7.20;;
8319;SDS011;4197;42.130;24.746;2024-02-21T11:12:52;7.82;;;7.00;;
8319;SDS011;4197;42.130;24.746;2024-02-21T11:15:25;7.83;;;7.03;;
8319;SDS011;4197;42.130;24.746;2024-02-21T11:17:56;8.83;;;7.63;;
8319;SDS011;4197;42.130;24.746;2024-02-21T11:20:34;12.23;;;8.23;;
8319;SDS011;4197;42.130;24.746;2024-02-21T11:23:03;10.73;;;7.03;;
8319;SDS011;4197;42.130;24.746;2024-02-21T11:25:32;8.97;;;7.20;;
8319;SDS011;4197;42.130;24.746;2024-02-21T11:28:02;8.32;;;6.57;;
8319;SDS011;4197;42.130;24.746;2024-02-21T11:30:31;7.47;;;6.30;;
8319;SDS011;4197;42.130;24.746;2024-02-21T11:33:02;8.70;;;6.47;;
8319;SDS011;4197;42.130;24.746;2024-02-21T11:35:34;7.63;;;6.40;;
8319;SDS011;4197;42.130;24.746;2024-02-21T11:38:08;8.82;;;7.22;;
8319;SDS011;4197;42.130;24.746;2024-02-21T11:40:44;8.00;;;6.70;;
8319;SDS011;4197;42.130;24.746;2024-02-21T11:43:15;8.50;;;5.97;;
8319;SDS011;4197;42.130;24.746;2024-02-21T11:45:44;6.67;;;5.30;;
8319;SDS011;4197;42.130;24.746;2024-02-21T11:48:15;8.18;;;6.30;;
8319;SDS011;4197;42.130;24.746;2024-02-21T11:50:52;9.97;;;6.13;;
8319;SDS011;4197;42.130;24.746;2024-02-21T11:53:23;10.77;;;8.43;;
8319;SDS011;4197;42.130;24.746;2024-02-21T11:55:53;8.43;;;7.00;;
8319;SDS011;4197;42.130;24.746;2024-02-21T11:58:23;9.60;;;6.03;;
8319;SDS011;4197;42.130;24.746;2024-02-21T12:00:53;10.40;;;8.32;;
8319;SDS011;4197;42.130;24.746;2024-02-21T12:03:24;11.82;;;6.40;;
8319;SDS011;4197;42.130;24.746;2024-02-21T12:05:53;8.23;;;6.22;;
8319;SDS011;4197;42.130;24.746;2024-02-21T12:08:23;10.02;;;7.00;;
8319;SDS011;4197;42.130;24.746;2024-02-21T12:10:52;5.25;;;4.75;;
8319;SDS011;4197;42.130;24.746;2024-02-21T12:13:22;6.18;;;5.20;;
8319;SDS011;4197;42.130;24.746;2024-02-21T12:15:51;5.32;;;4.82;;
8319;SDS011;4197;42.130;24.746;2024-02-21T12:18:20;5.90;;;5.30;;
8319;SDS011;4197;42.130;24.746;2024-02-21T12:20:50;6.07;;;5.18;;
8319;SDS011;4197;42.130;24.746;2024-02-21T12:23:19;7.60;;;6.18;;
8319;SDS011;4197;42.130;24.746;2024-02-21T12:25:47;8.52;;;5.22;;
8319;SDS011;4197;42.130;24.746;2024-02-21T12:28:15;5.63;;;4.70;;
8319;SDS011;4197;42.130;24.746;2024-02-21T12:30:44;5.47;;;4.70;;
8319;SDS011;4197;42.130;24.746;2024-02-21T12:33:16;5.95;;;4.35;;
8319;SDS011;4197;42.130;24.746;2024-02-21T12:35:44;6.75;;;5.03;;
8319;SDS011;4197;42.130;24.746;2024-02-21T12:38:14;6.85;;;5.28;;
8319;SDS011;4197;42.130;24.746;2024-02-21T12:40:44;6.47;;;5.82;;
8319;SDS011;4197;42.130;24.746;2024-02-21T12:43:13;7.13;;;4.95;;
8319;SDS011;4197;42.130;24.746;2024-02-21T12:45:45;5.80;;;4.90;;
8319;SDS011;4197;42.130;24.746;2024-02-21T12:48:13;8.00;;;6.00;;
8319;SDS011;4197;42.130;24.746;2024-02-21T12:50:43;6.78;;;5.53;;
8319;SDS011;4197;42.130;24.746;2024-02-21T12:53:19;9.75;;;5.63;;
8319;SDS011;4197;42.130;24.746;2024-02-21T12:55:58;6.43;;;5.03;;
8319;SDS011;4197;42.130;24.746;2024-02-21T12:58:27;5.78;;;5.18;;
8319;SDS011;4197;42.130;24.746;2024-02-21T13:00:58;4.97;;;4.00;;
8319;SDS011;4197;42.130;24.746;2024-02-21T13:03:27;4.15;;;3.75;;
8319;SDS011;4197;42.130;24.746;2024-02-21T13:05:59;4.97;;;3.90;;
8319;SDS011;4197;42.130;24.746;2024-02-21T13:08:29;4.50;;;3.78;;
8319;SDS011;4197;42.130;24.746;2024-02-21T13:10:57;5.63;;;4.07;;
8319;SDS011;4197;42.130;24.746;2024-02-21T13:13:26;5.13;;;3.70;;
8319;SDS011;4197;42.130;24.746;2024-02-21T13:15:54;5.90;;;3.65;;
8319;SDS011;4197;42.130;24.746;2024-02-21T13:18:23;3.97;;;3.38;;
8319;SDS011;4197;42.130;24.746;2024-02-21T13:20:52;5.55;;;3.83;;
8319;SDS011;4197;42.130;24.746;2024-02-21T13:23:20;4.10;;;3.70;;
8319;SDS011;4197;42.130;24.746;2024-02-21T13:25:50;4.75;;;3.55;;
8319;SDS011;4197;42.130;24.746;2024-02-21T13:28:18;4.57;;;3.97;;
8319;SDS011;4197;42.130;24.746;2024-02-21T13:30:47;4.95;;;4.38;;
8319;SDS011;4197;42.130;24.746;2024-02-21T13:33:15;4.43;;;3.90;;
8319;SDS011;4197;42.130;24.746;2024-02-21T13:35:44;6.30;;;4.30;;
8319;SDS011;4197;42.130;24.746;2024-02-21T13:38:12;5.22;;;3.67;;
8319;SDS011;4197;42.130;24.746;2024-02-21T13:40:41;6.85;;;4.32;;
8319;SDS011;4197;42.130;24.746;2024-02-21T13:43:11;3.85;;;3.40;;
8319;SDS011;4197;42.130;24.746;2024-02-21T13:45:40;3.97;;;3.40;;
8319;SDS011;4197;42.130;24.746;2024-02-21T13:48:11;6.50;;;3.60;;
8319;SDS011;4197;42.130;24.746;2024-02-21T13:50:41;5.25;;;3.95;;
8319;SDS011;4197;42.130;24.746;2024-02-21T13:53:11;13.52;;;4.50;;
8319;SDS011;4197;42.130;24.746;2024-02-21T13:55:39;6.18;;;5.10;;
8319;SDS011;4197;42.130;24.746;2024-02-21T13:58:11;5.35;;;4.20;;
8319;SDS011;4197;42.130;24.746;2024-02-21T14:00:40;4.65;;;4.05;;
8319;SDS011;4197;42.130;24.746;2024-02-21T14:03:09;5.80;;;4.47;;
8319;SDS011;4197;42.130;24.746;2024-02-21T14:05:38;9.73;;;3.83;;
8319;SDS011;4197;42.130;24.746;2024-02-21T14:08:09;10.15;;;3.63;;
8319;SDS011;4197;42.130;24.746;2024-02-21T14:10:37;5.90;;;2.92;;
8319;SDS011;4197;42.130;24.746;2024-02-21T14:13:05;5.18;;;3.83;;
8319;SDS011;4197;42.130;24.746;2024-02-21T14:15:35;6.97;;;4.57;;
8319;SDS011;4197;42.130;24.746;2024-02-21T14:18:07;5.18;;;3.90;;
8319;SDS011;4197;42.130;24.746;2024-02-21T14:20:37;4.77;;;3.50;;
8319;SDS011;4197;42.130;24.746;2024-02-21T14:23:06;6.00;;;4.18;;
8319;SDS011;4197;42.130;24.746;2024-02-21T14:25:35;7.40;;;4.40;;
8319;SDS011;4197;42.130;24.746;2024-02-21T14:28:05;9.82;;;5.60;;
8319;SDS011;4197;42.130;24.746;2024-02-21T14:30:37;11.27;;;7.03;;
8319;SDS011;4197;42.130;24.746;2024-02-21T14:33:06;7.70;;;6.23;;
8319;SDS011;4197;42.130;24.746;2024-02-21T14:35:35;6.43;;;5.50;;
8319;SDS011;4197;42.130;24.746;2024-02-21T14:38:03;9.47;;;6.60;;
8319;SDS011;4197;42.130;24.746;2024-02-21T14:40:31;9.83;;;7.30;;
8319;SDS011;4197;42.130;24.746;2024-02-21T14:43:00;10.13;;;6.55;;
8319;SDS011;4197;42.130;24.746;2024-02-21T14:45:28;7.83;;;6.00;;
8319;SDS011;4197;42.130;24.746;2024-02-21T14:47:59;7.60;;;6.00;;
8319;SDS011;4197;42.130;24.746;2024-02-21T14:50:28;9.63;;;6.63;;
8319;SDS011;4197;42.130;24.746;2024-02-21T14:52:57;10.70;;;7.33;;
8319;SDS011;4197;42.130;24.746;2024-02-21T14:55:25;12.30;;;7.20;;
8319;SDS011;4197;42.130;24.746;2024-02-21T14:57:54;11.07;;;6.60;;